sensor_id;sensor_type;location;lat;lon;timestamp;temperature;humidity
1686;DHT22;840;47.980;7.830;2022-08-01T00:02:19;24.20;75.10
1686;DHT22;840;47.980;7.830;2022-08-01T00:04:46;24.20;75.20
1686;DHT22;840;47.980;7.830;2022-08-01T00:07:14;24.20;75.60
1686;DHT22;840;47.980;7.830;2022-08-01T00:09:41;24.20;75.90
1686;DHT22;840;47.980;7.830;2022-08-01T00:12:08;24.20;76.20
1686;DHT22;840;47.980;7.830;2022-08-01T00:14:35;24.20;76.20
1686;DHT22;840;47.980;7.830;2022-08-01T00:17:02;24.10;76.70
1686;DHT22;840;47.980;7.830;2022-08-01T00:19:29;24.10;77.10
1686;DHT22;840;47.980;7.830;2022-08-01T00:21:55;24.10;77.00
1686;DHT22;840;47.980;7.830;2022-08-01T00:24:24;24.00;77.30
1686;DHT22;840;47.980;7.830;2022-08-01T00:26:51;23.90;77.80
1686;DHT22;840;47.980;7.830;2022-08-01T00:29:18;23.90;78.40
1686;DHT22;840;47.980;7.830;2022-08-01T00:31:44;23.90;78.50
1686;DHT22;840;47.980;7.830;2022-08-01T00:34:11;23.90;78.80
1686;DHT22;840;47.980;7.830;2022-08-01T00:36:38;23.80;79.60
1686;DHT22;840;47.980;7.830;2022-08-01T00:39:05;23.80;79.20
1686;DHT22;840;47.980;7.830;2022-08-01T00:41:34;23.80;79.80
1686;DHT22;840;47.980;7.830;2022-08-01T00:44:03;23.70;80.10
1686;DHT22;840;47.980;7.830;2022-08-01T00:46:30;23.70;80.60
1686;DHT22;840;47.980;7.830;2022-08-01T00:48:57;23.70;80.60
1686;DHT22;840;47.980;7.830;2022-08-01T00:51:24;23.60;81.20
1686;DHT22;840;47.980;7.830;2022-08-01T00:53:51;23.60;81.40
1686;DHT22;840;47.980;7.830;2022-08-01T00:56:19;23.60;81.90
1686;DHT22;840;47.980;7.830;2022-08-01T00:58:48;23.50;82.10
1686;DHT22;840;47.980;7.830;2022-08-01T01:01:14;23.50;82.50
1686;DHT22;840;47.980;7.830;2022-08-01T01:03:41;23.40;83.00
1686;DHT22;840;47.980;7.830;2022-08-01T01:06:15;23.40;83.80
1686;DHT22;840;47.980;7.830;2022-08-01T01:08:52;23.30;84.30
1686;DHT22;840;47.980;7.830;2022-08-01T01:11:26;23.20;84.80
1686;DHT22;840;47.980;7.830;2022-08-01T01:14:02;23.20;85.40
1686;DHT22;840;47.980;7.830;2022-08-01T01:16:31;23.10;85.50
1686;DHT22;840;47.980;7.830;2022-08-01T01:19:01;23.10;86.20
1686;DHT22;840;47.980;7.830;2022-08-01T01:21:53;23.00;86.90
1686;DHT22;840;47.980;7.830;2022-08-01T01:24:31;22.90;87.60
1686;DHT22;840;47.980;7.830;2022-08-01T01:27:06;22.90;88.10
1686;DHT22;840;47.980;7.830;2022-08-01T01:29:42;22.90;88.50
1686;DHT22;840;47.980;7.830;2022-08-01T01:32:13;22.80;89.00
1686;DHT22;840;47.980;7.830;2022-08-01T01:34:44;22.80;89.70
1686;DHT22;840;47.980;7.830;2022-08-01T01:37:15;22.80;90.00
1686;DHT22;840;47.980;7.830;2022-08-01T01:39:44;22.80;90.10
1686;DHT22;840;47.980;7.830;2022-08-01T01:42:13;22.80;90.10
1686;DHT22;840;47.980;7.830;2022-08-01T01:44:43;22.80;90.30
1686;DHT22;840;47.980;7.830;2022-08-01T01:47:11;22.80;90.50
1686;DHT22;840;47.980;7.830;2022-08-01T01:49:40;22.70;90.50
1686;DHT22;840;47.980;7.830;2022-08-01T01:52:09;22.70;90.70
1686;DHT22;840;47.980;7.830;2022-08-01T01:54:42;22.60;91.00
1686;DHT22;840;47.980;7.830;2022-08-01T01:57:12;22.60;91.00
1686;DHT22;840;47.980;7.830;2022-08-01T01:59:41;22.60;91.20
1686;DHT22;840;47.980;7.830;2022-08-01T02:02:09;22.50;91.40
1686;DHT22;840;47.980;7.830;2022-08-01T02:04:39;22.50;91.70
1686;DHT22;840;47.980;7.830;2022-08-01T02:07:08;22.40;91.80
1686;DHT22;840;47.980;7.830;2022-08-01T02:09:35;22.40;92.30
1686;DHT22;840;47.980;7.830;2022-08-01T02:12:04;22.30;92.30
1686;DHT22;840;47.980;7.830;2022-08-01T02:14:33;22.30;92.50
1686;DHT22;840;47.980;7.830;2022-08-01T02:17:02;22.30;92.70
1686;DHT22;840;47.980;7.830;2022-08-01T02:19:30;22.20;92.90
1686;DHT22;840;47.980;7.830;2022-08-01T02:22:00;22.20;93.10
1686;DHT22;840;47.980;7.830;2022-08-01T02:24:36;22.20;93.20
1686;DHT22;840;47.980;7.830;2022-08-01T02:27:09;22.10;93.50
1686;DHT22;840;47.980;7.830;2022-08-01T02:29:41;22.10;93.70
1686;DHT22;840;47.980;7.830;2022-08-01T02:32:11;22.10;93.90
1686;DHT22;840;47.980;7.830;2022-08-01T02:34:40;22.00;94.00
1686;DHT22;840;47.980;7.830;2022-08-01T02:37:09;22.00;94.40
1686;DHT22;840;47.980;7.830;2022-08-01T02:39:37;21.90;94.60
1686;DHT22;840;47.980;7.830;2022-08-01T02:42:07;21.80;95.00
1686;DHT22;840;47.980;7.830;2022-08-01T02:44:38;21.70;95.20
1686;DHT22;840;47.980;7.830;2022-08-01T02:47:05;21.80;95.40
1686;DHT22;840;47.980;7.830;2022-08-01T02:49:37;21.70;95.50
1686;DHT22;840;47.980;7.830;2022-08-01T02:52:07;21.70;95.90
1686;DHT22;840;47.980;7.830;2022-08-01T02:54:36;21.70;96.20
1686;DHT22;840;47.980;7.830;2022-08-01T02:57:04;21.60;96.30
1686;DHT22;840;47.980;7.830;2022-08-01T02:59:34;21.60;96.60
1686;DHT22;840;47.980;7.830;2022-08-01T03:02:03;21.60;97.00
1686;DHT22;840;47.980;7.830;2022-08-01T03:04:34;21.60;97.30
1686;DHT22;840;47.980;7.830;2022-08-01T03:07:03;21.60;97.40
1686;DHT22;840;47.980;7.830;2022-08-01T03:09:35;21.70;97.50
1686;DHT22;840;47.980;7.830;2022-08-01T03:12:06;21.70;97.50
1686;DHT22;840;47.980;7.830;2022-08-01T03:14:36;21.70;97.40
1686;DHT22;840;47.980;7.830;2022-08-01T03:17:06;21.60;97.50
1686;DHT22;840;47.980;7.830;2022-08-01T03:19:35;21.60;97.70
1686;DHT22;840;47.980;7.830;2022-08-01T03:22:06;21.60;97.70
1686;DHT22;840;47.980;7.830;2022-08-01T03:24:34;21.60;97.90
1686;DHT22;840;47.980;7.830;2022-08-01T03:27:02;21.50;98.10
1686;DHT22;840;47.980;7.830;2022-08-01T03:29:30;21.50;98.30
1686;DHT22;840;47.980;7.830;2022-08-01T03:31:58;21.40;98.50
1686;DHT22;840;47.980;7.830;2022-08-01T03:34:26;21.40;98.80
1686;DHT22;840;47.980;7.830;2022-08-01T03:36:59;21.30;99.10
1686;DHT22;840;47.980;7.830;2022-08-01T03:39:30;21.30;99.40
1686;DHT22;840;47.980;7.830;2022-08-01T03:42:03;21.20;99.80
1686;DHT22;840;47.980;7.830;2022-08-01T03:44:33;21.20;99.90
1686;DHT22;840;47.980;7.830;2022-08-01T03:47:06;21.20;99.90
1686;DHT22;840;47.980;7.830;2022-08-01T03:49:38;21.20;99.90
1686;DHT22;840;47.980;7.830;2022-08-01T03:52:08;21.20;99.90
1686;DHT22;840;47.980;7.830;2022-08-01T03:54:37;21.20;99.90
1686;DHT22;840;47.980;7.830;2022-08-01T03:57:05;21.10;99.90
1686;DHT22;840;47.980;7.830;2022-08-01T03:59:35;21.10;99.90
1686;DHT22;840;47.980;7.830;2022-08-01T04:02:03;21.10;99.90
1686;DHT22;840;47.980;7.830;2022-08-01T04:04:30;21.10;99.90
1686;DHT22;840;47.980;7.830;2022-08-01T04:06:58;21.10;99.90
1686;DHT22;840;47.980;7.830;2022-08-01T04:09:31;21.00;99.90
1686;DHT22;840;47.980;7.830;2022-08-01T04:11:58;21.00;99.90
1686;DHT22;840;47.980;7.830;2022-08-01T04:14:25;20.90;99.90
1686;DHT22;840;47.980;7.830;2022-08-01T04:16:52;20.90;99.90
1686;DHT22;840;47.980;7.830;2022-08-01T04:19:19;20.90;99.90
1686;DHT22;840;47.980;7.830;2022-08-01T04:21:46;20.80;99.90
1686;DHT22;840;47.980;7.830;2022-08-01T04:24:15;20.80;99.90
1686;DHT22;840;47.980;7.830;2022-08-01T04:26:45;20.70;99.90
1686;DHT22;840;47.980;7.830;2022-08-01T04:29:14;20.70;99.90
1686;DHT22;840;47.980;7.830;2022-08-01T04:31:43;20.70;99.90
1686;DHT22;840;47.980;7.830;2022-08-01T04:34:15;20.80;99.90
1686;DHT22;840;47.980;7.830;2022-08-01T04:36:44;20.80;99.90
1686;DHT22;840;47.980;7.830;2022-08-01T04:39:12;20.80;99.90
1686;DHT22;840;47.980;7.830;2022-08-01T04:41:40;20.90;99.90
1686;DHT22;840;47.980;7.830;2022-08-01T04:44:08;20.90;99.90
1686;DHT22;840;47.980;7.830;2022-08-01T04:46:37;21.00;99.90
1686;DHT22;840;47.980;7.830;2022-08-01T04:49:06;21.00;99.90
1686;DHT22;840;47.980;7.830;2022-08-01T04:51:34;21.00;99.90
1686;DHT22;840;47.980;7.830;2022-08-01T04:54:02;21.10;99.90
1686;DHT22;840;47.980;7.830;2022-08-01T04:56:29;21.10;99.90
1686;DHT22;840;47.980;7.830;2022-08-01T04:58:56;21.20;99.90
1686;DHT22;840;47.980;7.830;2022-08-01T05:01:41;21.20;99.90
1686;DHT22;840;47.980;7.830;2022-08-01T05:04:08;21.30;99.90
1686;DHT22;840;47.980;7.830;2022-08-01T05:06:35;21.30;99.90
1686;DHT22;840;47.980;7.830;2022-08-01T05:09:02;21.30;99.90
1686;DHT22;840;47.980;7.830;2022-08-01T05:11:28;21.30;99.90
1686;DHT22;840;47.980;7.830;2022-08-01T05:13:56;21.40;99.90
1686;DHT22;840;47.980;7.830;2022-08-01T05:16:22;21.50;99.90
1686;DHT22;840;47.980;7.830;2022-08-01T05:18:50;21.50;99.90
1686;DHT22;840;47.980;7.830;2022-08-01T05:21:17;21.50;99.90
1686;DHT22;840;47.980;7.830;2022-08-01T05:23:44;21.60;99.90
1686;DHT22;840;47.980;7.830;2022-08-01T05:26:12;21.60;99.90
1686;DHT22;840;47.980;7.830;2022-08-01T05:28:39;21.70;99.90
1686;DHT22;840;47.980;7.830;2022-08-01T05:31:05;21.70;99.90
1686;DHT22;840;47.980;7.830;2022-08-01T05:33:32;21.70;99.90
1686;DHT22;840;47.980;7.830;2022-08-01T05:36:01;21.80;99.90
1686;DHT22;840;47.980;7.830;2022-08-01T05:38:27;21.80;99.90
1686;DHT22;840;47.980;7.830;2022-08-01T05:40:54;21.90;99.90
1686;DHT22;840;47.980;7.830;2022-08-01T05:43:21;22.00;99.90
1686;DHT22;840;47.980;7.830;2022-08-01T05:45:47;22.00;99.90
1686;DHT22;840;47.980;7.830;2022-08-01T05:48:14;22.10;99.90
1686;DHT22;840;47.980;7.830;2022-08-01T05:50:41;22.10;99.90
1686;DHT22;840;47.980;7.830;2022-08-01T05:53:09;22.20;99.90
1686;DHT22;840;47.980;7.830;2022-08-01T05:55:36;22.30;99.90
1686;DHT22;840;47.980;7.830;2022-08-01T05:58:03;22.40;99.90
1686;DHT22;840;47.980;7.830;2022-08-01T06:00:30;22.50;99.90
1686;DHT22;840;47.980;7.830;2022-08-01T06:02:56;22.60;99.90
1686;DHT22;840;47.980;7.830;2022-08-01T06:05:23;22.60;99.90
1686;DHT22;840;47.980;7.830;2022-08-01T06:07:50;22.70;99.90
1686;DHT22;840;47.980;7.830;2022-08-01T06:10:18;22.70;99.90
1686;DHT22;840;47.980;7.830;2022-08-01T06:12:45;22.60;99.90
1686;DHT22;840;47.980;7.830;2022-08-01T06:15:12;22.60;99.90
1686;DHT22;840;47.980;7.830;2022-08-01T06:17:38;22.60;99.90
1686;DHT22;840;47.980;7.830;2022-08-01T06:20:07;22.60;99.90
1686;DHT22;840;47.980;7.830;2022-08-01T06:22:34;22.60;99.90
1686;DHT22;840;47.980;7.830;2022-08-01T06:25:01;22.70;99.90
1686;DHT22;840;47.980;7.830;2022-08-01T06:27:29;22.70;99.90
1686;DHT22;840;47.980;7.830;2022-08-01T06:29:56;22.80;99.90
1686;DHT22;840;47.980;7.830;2022-08-01T06:32:23;22.90;99.90
1686;DHT22;840;47.980;7.830;2022-08-01T06:34:52;23.00;99.90
1686;DHT22;840;47.980;7.830;2022-08-01T06:37:19;23.00;99.90
1686;DHT22;840;47.980;7.830;2022-08-01T06:39:46;23.00;99.90
1686;DHT22;840;47.980;7.830;2022-08-01T06:42:14;22.90;99.90
1686;DHT22;840;47.980;7.830;2022-08-01T06:44:43;22.90;99.90
1686;DHT22;840;47.980;7.830;2022-08-01T06:47:10;23.00;99.90
1686;DHT22;840;47.980;7.830;2022-08-01T06:49:37;23.00;99.90
1686;DHT22;840;47.980;7.830;2022-08-01T06:52:04;23.10;99.90
1686;DHT22;840;47.980;7.830;2022-08-01T06:54:30;23.20;99.90
1686;DHT22;840;47.980;7.830;2022-08-01T06:56:57;23.20;99.90
1686;DHT22;840;47.980;7.830;2022-08-01T06:59:24;23.30;99.90
1686;DHT22;840;47.980;7.830;2022-08-01T07:01:52;23.40;99.90
1686;DHT22;840;47.980;7.830;2022-08-01T07:04:18;23.40;99.90
1686;DHT22;840;47.980;7.830;2022-08-01T07:06:45;23.40;99.90
1686;DHT22;840;47.980;7.830;2022-08-01T07:09:12;23.40;99.90
1686;DHT22;840;47.980;7.830;2022-08-01T07:11:39;23.50;99.90
1686;DHT22;840;47.980;7.830;2022-08-01T07:14:05;23.60;99.90
1686;DHT22;840;47.980;7.830;2022-08-01T07:16:32;23.60;99.90
1686;DHT22;840;47.980;7.830;2022-08-01T07:19:01;23.70;99.90
1686;DHT22;840;47.980;7.830;2022-08-01T07:21:28;23.70;99.90
1686;DHT22;840;47.980;7.830;2022-08-01T07:23:54;23.80;99.90
1686;DHT22;840;47.980;7.830;2022-08-01T07:26:21;23.80;99.90
1686;DHT22;840;47.980;7.830;2022-08-01T07:28:48;23.90;99.90
1686;DHT22;840;47.980;7.830;2022-08-01T07:31:14;24.00;99.90
1686;DHT22;840;47.980;7.830;2022-08-01T07:33:41;24.00;99.90
1686;DHT22;840;47.980;7.830;2022-08-01T07:36:09;24.10;99.90
1686;DHT22;840;47.980;7.830;2022-08-01T07:38:36;24.10;99.80
1686;DHT22;840;47.980;7.830;2022-08-01T07:41:03;24.20;99.90
1686;DHT22;840;47.980;7.830;2022-08-01T07:43:30;24.20;99.90
1686;DHT22;840;47.980;7.830;2022-08-01T07:45:57;24.20;99.90
1686;DHT22;840;47.980;7.830;2022-08-01T07:48:25;24.20;99.90
1686;DHT22;840;47.980;7.830;2022-08-01T07:50:53;24.30;99.90
1686;DHT22;840;47.980;7.830;2022-08-01T07:53:22;24.40;99.90
1686;DHT22;840;47.980;7.830;2022-08-01T07:55:49;24.40;99.90
1686;DHT22;840;47.980;7.830;2022-08-01T07:58:16;24.40;99.60
1686;DHT22;840;47.980;7.830;2022-08-01T08:00:42;24.50;99.70
1686;DHT22;840;47.980;7.830;2022-08-01T08:03:09;24.50;99.30
1686;DHT22;840;47.980;7.830;2022-08-01T08:05:36;24.60;99.30
1686;DHT22;840;47.980;7.830;2022-08-01T08:08:04;24.60;99.10
1686;DHT22;840;47.980;7.830;2022-08-01T08:10:33;24.70;99.70
1686;DHT22;840;47.980;7.830;2022-08-01T08:13:00;24.80;99.20
1686;DHT22;840;47.980;7.830;2022-08-01T08:15:27;24.90;99.10
1686;DHT22;840;47.980;7.830;2022-08-01T08:17:55;25.00;98.50
1686;DHT22;840;47.980;7.830;2022-08-01T08:20:22;25.10;98.10
1686;DHT22;840;47.980;7.830;2022-08-01T08:22:50;25.10;98.30
1686;DHT22;840;47.980;7.830;2022-08-01T08:25:17;25.20;97.70
1686;DHT22;840;47.980;7.830;2022-08-01T08:27:46;25.20;97.40
1686;DHT22;840;47.980;7.830;2022-08-01T08:30:14;25.20;97.60
1686;DHT22;840;47.980;7.830;2022-08-01T08:32:41;25.20;97.80
1686;DHT22;840;47.980;7.830;2022-08-01T08:35:08;25.30;97.40
1686;DHT22;840;47.980;7.830;2022-08-01T08:37:36;25.30;97.00
1686;DHT22;840;47.980;7.830;2022-08-01T08:40:05;25.30;96.80
1686;DHT22;840;47.980;7.830;2022-08-01T08:42:32;25.40;96.80
1686;DHT22;840;47.980;7.830;2022-08-01T08:45:01;25.40;97.10
1686;DHT22;840;47.980;7.830;2022-08-01T08:47:31;25.40;97.10
1686;DHT22;840;47.980;7.830;2022-08-01T08:49:59;25.50;97.30
1686;DHT22;840;47.980;7.830;2022-08-01T08:52:28;25.60;97.00
1686;DHT22;840;47.980;7.830;2022-08-01T08:54:56;25.70;96.30
1686;DHT22;840;47.980;7.830;2022-08-01T08:57:23;25.80;96.10
1686;DHT22;840;47.980;7.830;2022-08-01T08:59:50;25.90;95.80
1686;DHT22;840;47.980;7.830;2022-08-01T09:02:22;25.90;96.00
1686;DHT22;840;47.980;7.830;2022-08-01T09:04:49;26.00;95.90
1686;DHT22;840;47.980;7.830;2022-08-01T09:07:16;26.10;95.40
1686;DHT22;840;47.980;7.830;2022-08-01T09:09:42;26.10;95.10
1686;DHT22;840;47.980;7.830;2022-08-01T09:12:09;26.20;94.50
1686;DHT22;840;47.980;7.830;2022-08-01T09:14:44;26.10;94.60
1686;DHT22;840;47.980;7.830;2022-08-01T09:17:11;26.20;94.50
1686;DHT22;840;47.980;7.830;2022-08-01T09:19:42;26.30;94.70
1686;DHT22;840;47.980;7.830;2022-08-01T09:22:10;26.40;94.60
1686;DHT22;840;47.980;7.830;2022-08-01T09:24:38;26.50;93.30
1686;DHT22;840;47.980;7.830;2022-08-01T09:27:16;26.50;93.90
1686;DHT22;840;47.980;7.830;2022-08-01T09:29:43;26.60;92.50
1686;DHT22;840;47.980;7.830;2022-08-01T09:32:10;26.70;91.80
1686;DHT22;840;47.980;7.830;2022-08-01T09:34:39;26.70;92.20
1686;DHT22;840;47.980;7.830;2022-08-01T09:37:06;26.80;90.10
1686;DHT22;840;47.980;7.830;2022-08-01T09:39:34;26.80;90.90
1686;DHT22;840;47.980;7.830;2022-08-01T09:42:19;26.90;90.10
1686;DHT22;840;47.980;7.830;2022-08-01T09:44:46;26.80;91.20
1686;DHT22;840;47.980;7.830;2022-08-01T09:47:14;26.80;91.80
1686;DHT22;840;47.980;7.830;2022-08-01T09:49:43;26.80;91.80
1686;DHT22;840;47.980;7.830;2022-08-01T09:52:12;26.90;91.50
1686;DHT22;840;47.980;7.830;2022-08-01T09:54:44;26.90;91.40
1686;DHT22;840;47.980;7.830;2022-08-01T09:57:19;27.00;91.40
1686;DHT22;840;47.980;7.830;2022-08-01T09:59:47;27.10;91.10
1686;DHT22;840;47.980;7.830;2022-08-01T10:02:27;27.10;90.60
1686;DHT22;840;47.980;7.830;2022-08-01T10:04:57;27.20;90.70
1686;DHT22;840;47.980;7.830;2022-08-01T10:07:24;27.30;90.70
1686;DHT22;840;47.980;7.830;2022-08-01T10:09:51;27.40;90.60
1686;DHT22;840;47.980;7.830;2022-08-01T10:12:20;27.40;90.80
1686;DHT22;840;47.980;7.830;2022-08-01T10:14:49;27.50;90.20
1686;DHT22;840;47.980;7.830;2022-08-01T10:17:18;27.50;88.70
1686;DHT22;840;47.980;7.830;2022-08-01T10:19:46;27.50;87.50
1686;DHT22;840;47.980;7.830;2022-08-01T10:22:16;27.60;89.00
1686;DHT22;840;47.980;7.830;2022-08-01T10:24:47;27.60;89.50
1686;DHT22;840;47.980;7.830;2022-08-01T10:27:17;27.60;89.10
1686;DHT22;840;47.980;7.830;2022-08-01T10:29:49;27.70;87.80
1686;DHT22;840;47.980;7.830;2022-08-01T10:32:17;27.70;86.70
1686;DHT22;840;47.980;7.830;2022-08-01T10:34:45;27.80;87.50
1686;DHT22;840;47.980;7.830;2022-08-01T10:37:13;27.80;87.60
1686;DHT22;840;47.980;7.830;2022-08-01T10:39:43;27.80;86.50
1686;DHT22;840;47.980;7.830;2022-08-01T10:42:11;27.80;86.20
1686;DHT22;840;47.980;7.830;2022-08-01T10:44:38;27.90;86.80
1686;DHT22;840;47.980;7.830;2022-08-01T10:47:09;27.90;85.70
1686;DHT22;840;47.980;7.830;2022-08-01T10:49:41;28.00;85.90
1686;DHT22;840;47.980;7.830;2022-08-01T10:52:14;28.10;85.80
1686;DHT22;840;47.980;7.830;2022-08-01T10:54:43;28.10;84.40
1686;DHT22;840;47.980;7.830;2022-08-01T10:57:10;28.20;83.90
1686;DHT22;840;47.980;7.830;2022-08-01T10:59:48;28.20;83.40
1686;DHT22;840;47.980;7.830;2022-08-01T11:02:25;28.10;81.00
1686;DHT22;840;47.980;7.830;2022-08-01T11:04:55;28.20;81.70
1686;DHT22;840;47.980;7.830;2022-08-01T11:07:24;28.20;75.80
1686;DHT22;840;47.980;7.830;2022-08-01T11:10:05;28.30;75.30
1686;DHT22;840;47.980;7.830;2022-08-01T11:12:39;28.40;75.10
1686;DHT22;840;47.980;7.830;2022-08-01T11:15:20;28.50;77.00
1686;DHT22;840;47.980;7.830;2022-08-01T11:17:54;28.60;79.40
1686;DHT22;840;47.980;7.830;2022-08-01T11:20:23;28.60;77.00
1686;DHT22;840;47.980;7.830;2022-08-01T11:23:23;28.70;75.70
1686;DHT22;840;47.980;7.830;2022-08-01T11:26:10;28.70;74.20
1686;DHT22;840;47.980;7.830;2022-08-01T11:28:37;28.80;73.00
1686;DHT22;840;47.980;7.830;2022-08-01T11:31:33;28.80;73.00
1686;DHT22;840;47.980;7.830;2022-08-01T11:34:00;28.80;72.60
1686;DHT22;840;47.980;7.830;2022-08-01T11:36:27;28.90;74.70
1686;DHT22;840;47.980;7.830;2022-08-01T11:39:15;28.90;72.60
1686;DHT22;840;47.980;7.830;2022-08-01T11:41:45;29.00;73.40
1686;DHT22;840;47.980;7.830;2022-08-01T11:44:14;29.10;73.80
1686;DHT22;840;47.980;7.830;2022-08-01T11:46:53;29.20;75.00
1686;DHT22;840;47.980;7.830;2022-08-01T11:49:30;29.40;74.40
1686;DHT22;840;47.980;7.830;2022-08-01T11:52:00;29.50;73.90
1686;DHT22;840;47.980;7.830;2022-08-01T11:54:28;29.60;72.90
1686;DHT22;840;47.980;7.830;2022-08-01T11:56:58;29.70;74.60
1686;DHT22;840;47.980;7.830;2022-08-01T11:59:27;29.80;73.90
1686;DHT22;840;47.980;7.830;2022-08-01T12:01:54;29.90;73.00
1686;DHT22;840;47.980;7.830;2022-08-01T12:04:21;30.00;72.30
1686;DHT22;840;47.980;7.830;2022-08-01T12:06:48;30.00;71.70
1686;DHT22;840;47.980;7.830;2022-08-01T12:09:19;30.00;71.40
1686;DHT22;840;47.980;7.830;2022-08-01T12:11:47;30.00;73.80
1686;DHT22;840;47.980;7.830;2022-08-01T12:14:22;30.10;71.60
1686;DHT22;840;47.980;7.830;2022-08-01T12:16:51;30.20;69.60
1686;DHT22;840;47.980;7.830;2022-08-01T12:19:20;30.20;68.60
1686;DHT22;840;47.980;7.830;2022-08-01T12:22:08;30.30;68.50
1686;DHT22;840;47.980;7.830;2022-08-01T12:24:37;30.10;68.20
1686;DHT22;840;47.980;7.830;2022-08-01T12:27:06;30.10;69.20
1686;DHT22;840;47.980;7.830;2022-08-01T12:29:36;30.30;68.30
1686;DHT22;840;47.980;7.830;2022-08-01T12:32:04;30.40;69.10
1686;DHT22;840;47.980;7.830;2022-08-01T12:34:31;30.60;68.00
1686;DHT22;840;47.980;7.830;2022-08-01T12:37:01;30.80;67.80
1686;DHT22;840;47.980;7.830;2022-08-01T12:39:35;30.90;65.50
1686;DHT22;840;47.980;7.830;2022-08-01T12:42:06;31.10;64.60
1686;DHT22;840;47.980;7.830;2022-08-01T12:44:35;31.50;66.00
1686;DHT22;840;47.980;7.830;2022-08-01T12:47:02;31.90;65.00
1686;DHT22;840;47.980;7.830;2022-08-01T12:49:31;32.20;63.90
1686;DHT22;840;47.980;7.830;2022-08-01T12:51:57;32.60;59.90
1686;DHT22;840;47.980;7.830;2022-08-01T12:54:27;32.70;60.00
1686;DHT22;840;47.980;7.830;2022-08-01T12:56:54;33.00;59.70
1686;DHT22;840;47.980;7.830;2022-08-01T12:59:24;33.00;58.60
1686;DHT22;840;47.980;7.830;2022-08-01T13:01:54;33.00;58.20
1686;DHT22;840;47.980;7.830;2022-08-01T13:04:22;33.10;58.20
1686;DHT22;840;47.980;7.830;2022-08-01T13:06:53;33.30;57.10
1686;DHT22;840;47.980;7.830;2022-08-01T13:09:19;33.10;56.30
1686;DHT22;840;47.980;7.830;2022-08-01T13:11:47;33.00;57.00
1686;DHT22;840;47.980;7.830;2022-08-01T13:14:26;33.00;57.20
1686;DHT22;840;47.980;7.830;2022-08-01T13:16:55;33.00;56.80
1686;DHT22;840;47.980;7.830;2022-08-01T13:19:41;33.20;56.80
1686;DHT22;840;47.980;7.830;2022-08-01T13:22:08;33.60;56.40
1686;DHT22;840;47.980;7.830;2022-08-01T13:24:35;33.60;55.50
1686;DHT22;840;47.980;7.830;2022-08-01T13:27:04;33.50;55.90
1686;DHT22;840;47.980;7.830;2022-08-01T13:29:32;33.50;55.70
1686;DHT22;840;47.980;7.830;2022-08-01T13:32:12;33.30;55.50
1686;DHT22;840;47.980;7.830;2022-08-01T13:34:39;32.60;55.50
1686;DHT22;840;47.980;7.830;2022-08-01T13:37:05;32.20;56.90
1686;DHT22;840;47.980;7.830;2022-08-01T13:39:33;32.00;56.70
1686;DHT22;840;47.980;7.830;2022-08-01T13:42:07;32.20;57.00
1686;DHT22;840;47.980;7.830;2022-08-01T13:44:34;32.50;57.90
1686;DHT22;840;47.980;7.830;2022-08-01T13:47:03;33.00;57.60
1686;DHT22;840;47.980;7.830;2022-08-01T13:49:30;33.40;56.80
1686;DHT22;840;47.980;7.830;2022-08-01T13:51:57;33.60;55.70
1686;DHT22;840;47.980;7.830;2022-08-01T13:54:24;33.50;57.00
1686;DHT22;840;47.980;7.830;2022-08-01T13:56:51;33.70;57.00
1686;DHT22;840;47.980;7.830;2022-08-01T13:59:18;33.40;56.70
1686;DHT22;840;47.980;7.830;2022-08-01T14:01:45;33.20;56.80
1686;DHT22;840;47.980;7.830;2022-08-01T14:04:14;32.80;58.00
1686;DHT22;840;47.980;7.830;2022-08-01T14:06:40;32.80;58.70
1686;DHT22;840;47.980;7.830;2022-08-01T14:09:07;32.70;58.90
1686;DHT22;840;47.980;7.830;2022-08-01T14:11:34;32.60;59.30
1686;DHT22;840;47.980;7.830;2022-08-01T14:14:01;32.50;58.80
1686;DHT22;840;47.980;7.830;2022-08-01T14:16:28;32.40;59.00
1686;DHT22;840;47.980;7.830;2022-08-01T14:18:55;32.20;60.00
1686;DHT22;840;47.980;7.830;2022-08-01T14:21:23;32.20;60.00
1686;DHT22;840;47.980;7.830;2022-08-01T14:23:50;32.50;59.70
1686;DHT22;840;47.980;7.830;2022-08-01T14:26:17;32.80;58.90
1686;DHT22;840;47.980;7.830;2022-08-01T14:28:45;32.90;58.30
1686;DHT22;840;47.980;7.830;2022-08-01T14:31:12;32.60;59.10
1686;DHT22;840;47.980;7.830;2022-08-01T14:33:39;32.40;59.60
1686;DHT22;840;47.980;7.830;2022-08-01T14:36:06;32.30;60.00
1686;DHT22;840;47.980;7.830;2022-08-01T14:38:34;32.00;60.80
1686;DHT22;840;47.980;7.830;2022-08-01T14:41:02;31.80;61.60
1686;DHT22;840;47.980;7.830;2022-08-01T14:43:28;31.70;63.30
1686;DHT22;840;47.980;7.830;2022-08-01T14:45:57;31.30;61.80
1686;DHT22;840;47.980;7.830;2022-08-01T14:48:23;30.80;62.50
1686;DHT22;840;47.980;7.830;2022-08-01T14:50:50;30.70;63.20
1686;DHT22;840;47.980;7.830;2022-08-01T14:53:17;30.60;64.20
1686;DHT22;840;47.980;7.830;2022-08-01T14:55:45;30.40;64.10
1686;DHT22;840;47.980;7.830;2022-08-01T14:58:12;30.50;64.80
1686;DHT22;840;47.980;7.830;2022-08-01T15:00:39;30.60;64.00
1686;DHT22;840;47.980;7.830;2022-08-01T15:03:06;30.60;64.30
1686;DHT22;840;47.980;7.830;2022-08-01T15:05:33;30.70;64.50
1686;DHT22;840;47.980;7.830;2022-08-01T15:08:01;31.10;63.40
1686;DHT22;840;47.980;7.830;2022-08-01T15:10:28;31.30;62.90
1686;DHT22;840;47.980;7.830;2022-08-01T15:12:56;31.60;62.80
1686;DHT22;840;47.980;7.830;2022-08-01T15:15:25;31.70;62.00
1686;DHT22;840;47.980;7.830;2022-08-01T15:17:52;31.90;61.40
1686;DHT22;840;47.980;7.830;2022-08-01T15:20:19;31.90;60.10
1686;DHT22;840;47.980;7.830;2022-08-01T15:22:45;31.80;60.40
1686;DHT22;840;47.980;7.830;2022-08-01T15:25:13;31.80;60.20
1686;DHT22;840;47.980;7.830;2022-08-01T15:27:40;31.80;60.60
1686;DHT22;840;47.980;7.830;2022-08-01T15:30:09;31.80;61.20
1686;DHT22;840;47.980;7.830;2022-08-01T15:32:35;31.70;61.40
1686;DHT22;840;47.980;7.830;2022-08-01T15:35:03;31.50;62.00
1686;DHT22;840;47.980;7.830;2022-08-01T15:37:30;31.50;62.60
1686;DHT22;840;47.980;7.830;2022-08-01T15:40:00;31.60;62.60
1686;DHT22;840;47.980;7.830;2022-08-01T15:42:26;31.70;62.80
1686;DHT22;840;47.980;7.830;2022-08-01T15:44:54;31.90;63.00
1686;DHT22;840;47.980;7.830;2022-08-01T15:47:22;31.90;63.10
1686;DHT22;840;47.980;7.830;2022-08-01T15:49:49;31.80;64.00
1686;DHT22;840;47.980;7.830;2022-08-01T15:52:15;31.70;64.60
1686;DHT22;840;47.980;7.830;2022-08-01T15:54:42;31.70;64.30
1686;DHT22;840;47.980;7.830;2022-08-01T15:57:15;31.90;65.00
1686;DHT22;840;47.980;7.830;2022-08-01T15:59:42;32.10;63.70
1686;DHT22;840;47.980;7.830;2022-08-01T16:02:09;32.20;63.70
1686;DHT22;840;47.980;7.830;2022-08-01T16:04:37;32.30;63.30
1686;DHT22;840;47.980;7.830;2022-08-01T16:07:04;32.50;62.60
1686;DHT22;840;47.980;7.830;2022-08-01T16:09:30;32.40;62.40
1686;DHT22;840;47.980;7.830;2022-08-01T16:11:58;32.20;62.70
1686;DHT22;840;47.980;7.830;2022-08-01T16:14:24;32.20;63.20
1686;DHT22;840;47.980;7.830;2022-08-01T16:16:51;32.10;63.40
1686;DHT22;840;47.980;7.830;2022-08-01T16:19:18;32.00;63.00
1686;DHT22;840;47.980;7.830;2022-08-01T16:21:46;31.70;63.40
1686;DHT22;840;47.980;7.830;2022-08-01T16:24:13;31.30;64.50
1686;DHT22;840;47.980;7.830;2022-08-01T16:26:40;31.00;65.20
1686;DHT22;840;47.980;7.830;2022-08-01T16:29:07;30.90;66.40